Startpagina
METAR-TAF:

METAR-TAF

Vliegvelden :

Meierwik

Glücksburg, Duitsland

breedte: 54-50N, lengte: 009-30E, hoogte: 27 m

Actueel weer

Dit bericht is 40 minuten geleden gemaakt, om 21:20 UTC
Wind 2 kt uit het noorden
Temperatuur 18°C
Vochtigheid 94%
Druk 1019 hPa

METAR: ETGG 232120Z AUTO 36002KT //// // ////// 18/17 Q1019 ///

Tijdstip: 00:00 (22:00 UTC)


TAF: ontbreekt

Waarnemingen en weersverwachtingen van meer dan 4000 vliegvelden (METAR en TAF).

De beschikbare stations zijn de gele en rode punten op de kaart.

Ga met uw muis naar het station om de naam te zien.

Klik dan om waarnemingen en weersverwachtingen te zien.

kaart wijzigen: klik op de groene knoppen met een zwart kruis om in te zoomen, op de groene knop met een streepje om uit te zoomen of op de groene pijlen voor aangrenzende kaarten.


METAR-TAF: